KJDN

Details ICAO KJDN
Name Jordan
Region United States
Timezone America/Denver (UTC-6.0)
Plans Departing 0
Arriving 4
Stats Elevation 2,662 ft / 811 m (AMSL)
Location 47.328701° -106.952658°
Runways 1
Magnetic Variation 9.967° E
Sunrise 2018-05-23 11:23:52 UTC / 2018-05-23 05:23:52 Local
Sunset 2018-05-24 02:48:10 UTC / 2018-05-23 20:48:10 Local
Advertisement - Login to hide

Runways

ID Width Length Bearing (true) Bearing (mag) Surface Threshold Offset Overrun Length
10 75 ft / 23 m 4,321 ft / 1,317 m 114.98° 105.01° Asphalt 0 ft / 0 m 0 ft / 0 m
28 75 ft / 23 m 4,321 ft / 1,317 m 295.00° 285.03° Asphalt 0 ft / 0 m 0 ft / 0 m

Map

Weather


0- 5 10 15 20 25 30 35+ Temperature / ° C

Clouds and Precipitation
Forecast for 2018-05-24 00:00 UTC. Updated 2 hours ago

Ground ~20,000 ft ~40,000 ft Winds

METAR

KJDN 240048Z AUTO 01010KT 18/15 A2981 RMK AO1 SLP091 T01780150

TAF

Not found

Frequencies

Unicom 122.90 MHz CTAF
Warning: Do not use this data for real-world aviation or navigation. No guarantee of current accuracy is given.